sensor_id;sensor_type;location;lat;lon;timestamp;P1;durP1;ratioP1;P2;durP2;ratioP2
10957;SDS011;5531;42.570;23.676;2023-07-02T00:01:11;7.22;;;6.00;;
10957;SDS011;5531;42.570;23.676;2023-07-02T00:03:41;9.00;;;6.20;;
10957;SDS011;5531;42.570;23.676;2023-07-02T00:06:10;7.10;;;5.75;;
10957;SDS011;5531;42.570;23.676;2023-07-02T00:08:39;7.70;;;5.80;;
10957;SDS011;5531;42.570;23.676;2023-07-02T00:11:09;8.27;;;5.90;;
10957;SDS011;5531;42.570;23.676;2023-07-02T00:13:38;8.10;;;5.43;;
10957;SDS011;5531;42.570;23.676;2023-07-02T00:16:08;7.15;;;5.70;;
10957;SDS011;5531;42.570;23.676;2023-07-02T00:18:40;7.85;;;5.90;;
10957;SDS011;5531;42.570;23.676;2023-07-02T00:21:09;8.20;;;6.50;;
10957;SDS011;5531;42.570;23.676;2023-07-02T00:23:38;9.73;;;6.75;;
10957;SDS011;5531;42.570;23.676;2023-07-02T00:26:08;7.80;;;5.90;;
10957;SDS011;5531;42.570;23.676;2023-07-02T00:28:37;9.85;;;6.85;;
10957;SDS011;5531;42.570;23.676;2023-07-02T00:31:06;6.72;;;6.03;;
10957;SDS011;5531;42.570;23.676;2023-07-02T00:33:38;8.32;;;6.05;;
10957;SDS011;5531;42.570;23.676;2023-07-02T00:36:07;9.02;;;6.43;;
10957;SDS011;5531;42.570;23.676;2023-07-02T00:38:40;10.25;;;7.10;;
10957;SDS011;5531;42.570;23.676;2023-07-02T00:41:10;6.68;;;5.85;;
10957;SDS011;5531;42.570;23.676;2023-07-02T00:43:40;8.43;;;6.30;;
10957;SDS011;5531;42.570;23.676;2023-07-02T00:46:11;8.85;;;6.18;;
10957;SDS011;5531;42.570;23.676;2023-07-02T00:48:48;6.78;;;5.85;;
10957;SDS011;5531;42.570;23.676;2023-07-02T00:51:19;9.98;;;6.20;;
10957;SDS011;5531;42.570;23.676;2023-07-02T00:53:51;7.85;;;5.70;;
10957;SDS011;5531;42.570;23.676;2023-07-02T00:56:21;7.68;;;5.50;;
10957;SDS011;5531;42.570;23.676;2023-07-02T00:58:51;8.55;;;5.72;;
10957;SDS011;5531;42.570;23.676;2023-07-02T01:01:24;7.43;;;6.00;;
10957;SDS011;5531;42.570;23.676;2023-07-02T01:03:59;7.82;;;5.65;;
10957;SDS011;5531;42.570;23.676;2023-07-02T01:06:30;8.10;;;5.90;;
10957;SDS011;5531;42.570;23.676;2023-07-02T01:09:00;7.43;;;5.55;;
10957;SDS011;5531;42.570;23.676;2023-07-02T01:11:31;8.98;;;5.88;;
10957;SDS011;5531;42.570;23.676;2023-07-02T01:14:03;8.40;;;5.93;;
10957;SDS011;5531;42.570;23.676;2023-07-02T01:16:36;8.52;;;5.82;;
10957;SDS011;5531;42.570;23.676;2023-07-02T01:19:11;8.50;;;6.13;;
10957;SDS011;5531;42.570;23.676;2023-07-02T01:21:49;7.68;;;6.10;;
10957;SDS011;5531;42.570;23.676;2023-07-02T01:24:18;7.80;;;5.75;;
10957;SDS011;5531;42.570;23.676;2023-07-02T01:26:48;7.50;;;5.90;;
10957;SDS011;5531;42.570;23.676;2023-07-02T01:29:18;7.68;;;6.38;;
10957;SDS011;5531;42.570;23.676;2023-07-02T01:31:48;9.50;;;6.70;;
10957;SDS011;5531;42.570;23.676;2023-07-02T01:34:17;7.82;;;6.20;;
10957;SDS011;5531;42.570;23.676;2023-07-02T01:36:49;8.35;;;6.50;;
10957;SDS011;5531;42.570;23.676;2023-07-02T01:39:18;8.05;;;6.38;;
10957;SDS011;5531;42.570;23.676;2023-07-02T01:41:49;8.70;;;6.28;;
10957;SDS011;5531;42.570;23.676;2023-07-02T01:44:19;8.82;;;7.10;;
10957;SDS011;5531;42.570;23.676;2023-07-02T01:46:49;8.55;;;6.22;;
10957;SDS011;5531;42.570;23.676;2023-07-02T01:49:21;8.63;;;6.35;;
10957;SDS011;5531;42.570;23.676;2023-07-02T01:51:54;9.00;;;6.88;;
10957;SDS011;5531;42.570;23.676;2023-07-02T01:54:24;8.18;;;6.35;;
10957;SDS011;5531;42.570;23.676;2023-07-02T01:56:55;6.90;;;5.85;;
10957;SDS011;5531;42.570;23.676;2023-07-02T01:59:24;8.82;;;6.50;;
10957;SDS011;5531;42.570;23.676;2023-07-02T02:01:53;10.25;;;6.60;;
10957;SDS011;5531;42.570;23.676;2023-07-02T02:04:22;7.88;;;6.50;;
10957;SDS011;5531;42.570;23.676;2023-07-02T02:06:54;8.65;;;6.78;;
10957;SDS011;5531;42.570;23.676;2023-07-02T02:09:23;9.13;;;7.20;;
10957;SDS011;5531;42.570;23.676;2023-07-02T02:11:53;9.00;;;7.45;;
10957;SDS011;5531;42.570;23.676;2023-07-02T02:14:23;8.43;;;6.72;;
10957;SDS011;5531;42.570;23.676;2023-07-02T02:16:52;9.77;;;6.80;;
10957;SDS011;5531;42.570;23.676;2023-07-02T02:19:21;7.95;;;6.80;;
10957;SDS011;5531;42.570;23.676;2023-07-02T02:21:50;9.00;;;6.80;;
10957;SDS011;5531;42.570;23.676;2023-07-02T02:24:22;9.27;;;7.32;;
10957;SDS011;5531;42.570;23.676;2023-07-02T02:26:52;10.15;;;7.38;;
10957;SDS011;5531;42.570;23.676;2023-07-02T02:29:21;10.23;;;7.65;;
10957;SDS011;5531;42.570;23.676;2023-07-02T02:31:50;8.48;;;7.05;;
10957;SDS011;5531;42.570;23.676;2023-07-02T02:34:20;9.27;;;7.18;;
10957;SDS011;5531;42.570;23.676;2023-07-02T02:36:49;9.80;;;7.30;;
10957;SDS011;5531;42.570;23.676;2023-07-02T02:39:23;8.63;;;6.80;;
10957;SDS011;5531;42.570;23.676;2023-07-02T02:41:52;8.38;;;6.90;;
10957;SDS011;5531;42.570;23.676;2023-07-02T02:44:21;9.75;;;7.10;;
10957;SDS011;5531;42.570;23.676;2023-07-02T02:46:50;8.60;;;6.93;;
10957;SDS011;5531;42.570;23.676;2023-07-02T02:49:19;8.88;;;7.03;;
10957;SDS011;5531;42.570;23.676;2023-07-02T02:51:48;9.23;;;7.32;;
10957;SDS011;5531;42.570;23.676;2023-07-02T02:54:17;10.13;;;7.13;;
10957;SDS011;5531;42.570;23.676;2023-07-02T02:56:49;7.72;;;6.30;;
10957;SDS011;5531;42.570;23.676;2023-07-02T02:59:18;7.95;;;6.60;;
10957;SDS011;5531;42.570;23.676;2023-07-02T03:01:47;7.57;;;6.68;;
10957;SDS011;5531;42.570;23.676;2023-07-02T03:04:16;10.73;;;7.03;;
10957;SDS011;5531;42.570;23.676;2023-07-02T03:06:50;8.68;;;6.13;;
10957;SDS011;5531;42.570;23.676;2023-07-02T03:09:21;8.40;;;5.65;;
10957;SDS011;5531;42.570;23.676;2023-07-02T03:11:53;6.78;;;5.45;;
10957;SDS011;5531;42.570;23.676;2023-07-02T03:14:22;8.55;;;5.95;;
10957;SDS011;5531;42.570;23.676;2023-07-02T03:16:51;6.60;;;5.18;;
10957;SDS011;5531;42.570;23.676;2023-07-02T03:19:19;7.60;;;5.60;;
10957;SDS011;5531;42.570;23.676;2023-07-02T03:21:48;7.03;;;5.30;;
10957;SDS011;5531;42.570;23.676;2023-07-02T03:24:17;6.18;;;5.20;;
10957;SDS011;5531;42.570;23.676;2023-07-02T03:26:47;7.35;;;5.97;;
10957;SDS011;5531;42.570;23.676;2023-07-02T03:29:18;8.50;;;6.30;;
10957;SDS011;5531;42.570;23.676;2023-07-02T03:31:47;8.82;;;6.05;;
10957;SDS011;5531;42.570;23.676;2023-07-02T03:34:16;7.60;;;5.93;;
10957;SDS011;5531;42.570;23.676;2023-07-02T03:36:45;8.70;;;6.82;;
10957;SDS011;5531;42.570;23.676;2023-07-02T03:39:14;8.45;;;6.40;;
10957;SDS011;5531;42.570;23.676;2023-07-02T03:41:44;8.38;;;6.47;;
10957;SDS011;5531;42.570;23.676;2023-07-02T03:44:13;9.30;;;6.25;;
10957;SDS011;5531;42.570;23.676;2023-07-02T03:46:44;7.05;;;6.32;;
10957;SDS011;5531;42.570;23.676;2023-07-02T03:49:14;8.80;;;7.07;;
10957;SDS011;5531;42.570;23.676;2023-07-02T03:51:43;7.95;;;6.60;;
10957;SDS011;5531;42.570;23.676;2023-07-02T03:54:12;8.68;;;6.80;;
10957;SDS011;5531;42.570;23.676;2023-07-02T03:56:41;8.82;;;6.63;;
10957;SDS011;5531;42.570;23.676;2023-07-02T03:59:10;7.65;;;6.25;;
10957;SDS011;5531;42.570;23.676;2023-07-02T04:01:39;7.90;;;6.15;;
10957;SDS011;5531;42.570;23.676;2023-07-02T04:04:10;7.13;;;6.20;;
10957;SDS011;5531;42.570;23.676;2023-07-02T04:06:39;10.57;;;6.57;;
10957;SDS011;5531;42.570;23.676;2023-07-02T04:09:09;6.70;;;5.70;;
10957;SDS011;5531;42.570;23.676;2023-07-02T04:11:38;7.30;;;5.63;;
10957;SDS011;5531;42.570;23.676;2023-07-02T04:14:07;9.02;;;6.35;;
10957;SDS011;5531;42.570;23.676;2023-07-02T04:16:36;7.50;;;5.80;;
10957;SDS011;5531;42.570;23.676;2023-07-02T04:19:05;6.72;;;5.65;;
10957;SDS011;5531;42.570;23.676;2023-07-02T04:21:36;7.72;;;5.72;;
10957;SDS011;5531;42.570;23.676;2023-07-02T04:24:05;8.02;;;6.10;;
10957;SDS011;5531;42.570;23.676;2023-07-02T04:26:34;8.77;;;5.80;;
10957;SDS011;5531;42.570;23.676;2023-07-02T04:29:07;8.63;;;6.25;;
10957;SDS011;5531;42.570;23.676;2023-07-02T04:31:37;6.50;;;5.13;;
10957;SDS011;5531;42.570;23.676;2023-07-02T04:34:06;7.45;;;6.00;;
10957;SDS011;5531;42.570;23.676;2023-07-02T04:36:38;7.43;;;5.82;;
10957;SDS011;5531;42.570;23.676;2023-07-02T04:39:08;7.65;;;5.68;;
10957;SDS011;5531;42.570;23.676;2023-07-02T04:41:37;7.13;;;5.50;;
10957;SDS011;5531;42.570;23.676;2023-07-02T04:44:06;6.47;;;5.38;;
10957;SDS011;5531;42.570;23.676;2023-07-02T04:46:36;7.88;;;5.00;;
10957;SDS011;5531;42.570;23.676;2023-07-02T04:49:05;6.93;;;4.80;;
10957;SDS011;5531;42.570;23.676;2023-07-02T04:51:34;6.60;;;5.03;;
10957;SDS011;5531;42.570;23.676;2023-07-02T04:54:05;6.18;;;4.63;;
10957;SDS011;5531;42.570;23.676;2023-07-02T04:56:34;6.07;;;4.03;;
10957;SDS011;5531;42.570;23.676;2023-07-02T04:59:03;5.18;;;4.53;;
10957;SDS011;5531;42.570;23.676;2023-07-02T05:01:32;5.00;;;4.32;;
10957;SDS011;5531;42.570;23.676;2023-07-02T05:04:01;5.38;;;4.63;;
10957;SDS011;5531;42.570;23.676;2023-07-02T05:06:31;6.18;;;4.40;;
10957;SDS011;5531;42.570;23.676;2023-07-02T05:09:00;5.97;;;4.80;;
10957;SDS011;5531;42.570;23.676;2023-07-02T05:11:31;9.18;;;6.28;;
10957;SDS011;5531;42.570;23.676;2023-07-02T05:14:01;9.55;;;6.95;;
10957;SDS011;5531;42.570;23.676;2023-07-02T05:16:30;8.38;;;6.47;;
10957;SDS011;5531;42.570;23.676;2023-07-02T05:19:03;6.65;;;5.55;;
10957;SDS011;5531;42.570;23.676;2023-07-02T05:21:32;7.93;;;5.55;;
10957;SDS011;5531;42.570;23.676;2023-07-02T05:24:01;5.32;;;4.80;;
10957;SDS011;5531;42.570;23.676;2023-07-02T05:26:33;6.18;;;4.88;;
10957;SDS011;5531;42.570;23.676;2023-07-02T05:29:02;5.47;;;4.10;;
10957;SDS011;5531;42.570;23.676;2023-07-02T05:31:31;5.10;;;4.03;;
10957;SDS011;5531;42.570;23.676;2023-07-02T05:34:00;8.10;;;4.68;;
10957;SDS011;5531;42.570;23.676;2023-07-02T05:36:29;5.13;;;4.00;;
10957;SDS011;5531;42.570;23.676;2023-07-02T05:38:59;5.65;;;4.55;;
10957;SDS011;5531;42.570;23.676;2023-07-02T05:41:28;5.85;;;4.30;;
10957;SDS011;5531;42.570;23.676;2023-07-02T05:44:00;4.82;;;4.22;;
10957;SDS011;5531;42.570;23.676;2023-07-02T05:46:29;5.25;;;4.35;;
10957;SDS011;5531;42.570;23.676;2023-07-02T05:48:58;6.10;;;4.60;;
10957;SDS011;5531;42.570;23.676;2023-07-02T05:51:27;7.85;;;4.72;;
10957;SDS011;5531;42.570;23.676;2023-07-02T05:53:56;5.53;;;4.50;;
10957;SDS011;5531;42.570;23.676;2023-07-02T05:56:25;6.05;;;4.43;;
10957;SDS011;5531;42.570;23.676;2023-07-02T05:58:54;6.18;;;4.32;;
10957;SDS011;5531;42.570;23.676;2023-07-02T06:01:26;6.40;;;4.70;;
10957;SDS011;5531;42.570;23.676;2023-07-02T06:03:55;4.93;;;4.35;;
10957;SDS011;5531;42.570;23.676;2023-07-02T06:06:24;4.80;;;3.97;;
10957;SDS011;5531;42.570;23.676;2023-07-02T06:08:54;6.00;;;4.25;;
10957;SDS011;5531;42.570;23.676;2023-07-02T06:11:22;6.05;;;4.40;;
10957;SDS011;5531;42.570;23.676;2023-07-02T06:13:52;5.72;;;4.65;;
10957;SDS011;5531;42.570;23.676;2023-07-02T06:16:21;4.72;;;4.10;;
10957;SDS011;5531;42.570;23.676;2023-07-02T06:18:52;5.30;;;4.10;;
10957;SDS011;5531;42.570;23.676;2023-07-02T06:21:21;5.07;;;4.40;;
10957;SDS011;5531;42.570;23.676;2023-07-02T06:23:54;5.03;;;4.18;;
10957;SDS011;5531;42.570;23.676;2023-07-02T06:26:24;6.85;;;4.55;;
10957;SDS011;5531;42.570;23.676;2023-07-02T06:28:53;5.82;;;4.15;;
10957;SDS011;5531;42.570;23.676;2023-07-02T06:31:23;5.55;;;3.50;;
10957;SDS011;5531;42.570;23.676;2023-07-02T06:33:55;5.07;;;4.22;;
10957;SDS011;5531;42.570;23.676;2023-07-02T06:36:24;4.90;;;4.00;;
10957;SDS011;5531;42.570;23.676;2023-07-02T06:38:53;5.20;;;4.20;;
10957;SDS011;5531;42.570;23.676;2023-07-02T06:41:22;4.00;;;3.50;;
10957;SDS011;5531;42.570;23.676;2023-07-02T06:43:51;5.28;;;3.80;;
10957;SDS011;5531;42.570;23.676;2023-07-02T06:46:21;5.50;;;3.95;;
10957;SDS011;5531;42.570;23.676;2023-07-02T06:48:50;6.53;;;4.35;;
10957;SDS011;5531;42.570;23.676;2023-07-02T06:51:22;6.18;;;4.40;;
10957;SDS011;5531;42.570;23.676;2023-07-02T06:53:52;5.70;;;4.43;;
10957;SDS011;5531;42.570;23.676;2023-07-02T06:56:21;6.15;;;4.60;;
10957;SDS011;5531;42.570;23.676;2023-07-02T06:58:50;6.40;;;4.90;;
10957;SDS011;5531;42.570;23.676;2023-07-02T07:01:19;6.65;;;5.38;;
10957;SDS011;5531;42.570;23.676;2023-07-02T07:03:48;7.65;;;5.22;;
10957;SDS011;5531;42.570;23.676;2023-07-02T07:06:18;6.68;;;5.35;;
10957;SDS011;5531;42.570;23.676;2023-07-02T07:08:49;7.90;;;5.30;;
10957;SDS011;5531;42.570;23.676;2023-07-02T07:11:19;9.45;;;5.68;;
10957;SDS011;5531;42.570;23.676;2023-07-02T07:13:48;9.57;;;6.60;;
10957;SDS011;5531;42.570;23.676;2023-07-02T07:16:17;7.28;;;5.78;;
10957;SDS011;5531;42.570;23.676;2023-07-02T07:18:47;7.55;;;6.40;;
10957;SDS011;5531;42.570;23.676;2023-07-02T07:21:16;9.27;;;6.47;;
10957;SDS011;5531;42.570;23.676;2023-07-02T07:23:45;7.70;;;6.45;;
10957;SDS011;5531;42.570;23.676;2023-07-02T07:26:16;8.15;;;7.03;;
10957;SDS011;5531;42.570;23.676;2023-07-02T07:28:45;10.80;;;7.20;;
10957;SDS011;5531;42.570;23.676;2023-07-02T07:31:15;8.57;;;7.05;;
10957;SDS011;5531;42.570;23.676;2023-07-02T07:33:44;9.45;;;7.00;;
10957;SDS011;5531;42.570;23.676;2023-07-02T07:36:12;9.32;;;7.47;;
10957;SDS011;5531;42.570;23.676;2023-07-02T07:38:42;10.20;;;7.38;;
10957;SDS011;5531;42.570;23.676;2023-07-02T07:41:12;8.35;;;6.70;;
10957;SDS011;5531;42.570;23.676;2023-07-02T07:43:43;10.82;;;7.28;;
10957;SDS011;5531;42.570;23.676;2023-07-02T07:46:12;8.93;;;7.18;;
10957;SDS011;5531;42.570;23.676;2023-07-02T07:48:41;10.13;;;7.70;;
10957;SDS011;5531;42.570;23.676;2023-07-02T07:51:10;8.57;;;7.03;;
10957;SDS011;5531;42.570;23.676;2023-07-02T07:53:39;8.57;;;6.95;;
10957;SDS011;5531;42.570;23.676;2023-07-02T07:56:08;8.13;;;6.38;;
10957;SDS011;5531;42.570;23.676;2023-07-02T07:58:37;6.65;;;5.95;;
10957;SDS011;5531;42.570;23.676;2023-07-02T08:01:09;7.72;;;6.45;;
10957;SDS011;5531;42.570;23.676;2023-07-02T08:03:38;9.25;;;6.65;;
10957;SDS011;5531;42.570;23.676;2023-07-02T08:06:07;6.97;;;5.75;;
10957;SDS011;5531;42.570;23.676;2023-07-02T08:08:36;8.02;;;5.78;;
10957;SDS011;5531;42.570;23.676;2023-07-02T08:11:05;6.20;;;5.15;;
10957;SDS011;5531;42.570;23.676;2023-07-02T08:13:34;5.88;;;4.60;;
10957;SDS011;5531;42.570;23.676;2023-07-02T08:16:03;6.38;;;4.70;;
10957;SDS011;5531;42.570;23.676;2023-07-02T08:18:37;7.10;;;4.60;;
10957;SDS011;5531;42.570;23.676;2023-07-02T08:21:07;7.50;;;5.43;;
10957;SDS011;5531;42.570;23.676;2023-07-02T08:23:36;6.72;;;5.30;;
10957;SDS011;5531;42.570;23.676;2023-07-02T08:26:05;8.70;;;5.32;;
10957;SDS011;5531;42.570;23.676;2023-07-02T08:28:36;5.70;;;4.70;;
10957;SDS011;5531;42.570;23.676;2023-07-02T08:31:06;6.07;;;5.15;;
10957;SDS011;5531;42.570;23.676;2023-07-02T08:33:38;6.65;;;5.20;;
10957;SDS011;5531;42.570;23.676;2023-07-02T08:36:07;5.95;;;4.95;;
10957;SDS011;5531;42.570;23.676;2023-07-02T08:38:36;7.65;;;5.30;;
10957;SDS011;5531;42.570;23.676;2023-07-02T08:41:07;5.93;;;5.03;;
10957;SDS011;5531;42.570;23.676;2023-07-02T08:43:36;7.63;;;4.88;;
10957;SDS011;5531;42.570;23.676;2023-07-02T08:46:09;5.57;;;4.90;;
10957;SDS011;5531;42.570;23.676;2023-07-02T08:48:41;6.60;;;5.40;;
10957;SDS011;5531;42.570;23.676;2023-07-02T08:51:10;8.35;;;5.53;;
10957;SDS011;5531;42.570;23.676;2023-07-02T08:53:39;7.30;;;5.28;;
10957;SDS011;5531;42.570;23.676;2023-07-02T08:56:08;6.53;;;4.85;;
10957;SDS011;5531;42.570;23.676;2023-07-02T08:58:37;7.05;;;5.18;;
10957;SDS011;5531;42.570;23.676;2023-07-02T09:01:07;6.72;;;5.03;;
10957;SDS011;5531;42.570;23.676;2023-07-02T09:03:38;6.15;;;4.93;;
10957;SDS011;5531;42.570;23.676;2023-07-02T09:06:10;6.57;;;5.03;;
10957;SDS011;5531;42.570;23.676;2023-07-02T09:08:40;5.72;;;5.10;;
10957;SDS011;5531;42.570;23.676;2023-07-02T09:11:10;5.80;;;5.03;;
10957;SDS011;5531;42.570;23.676;2023-07-02T09:13:46;5.88;;;4.80;;
10957;SDS011;5531;42.570;23.676;2023-07-02T09:16:24;5.72;;;4.72;;
10957;SDS011;5531;42.570;23.676;2023-07-02T09:19:00;5.70;;;4.50;;
10957;SDS011;5531;42.570;23.676;2023-07-02T09:21:42;5.85;;;5.25;;
10957;SDS011;5531;42.570;23.676;2023-07-02T09:24:15;6.07;;;5.38;;
10957;SDS011;5531;42.570;23.676;2023-07-02T09:26:46;5.57;;;5.00;;
10957;SDS011;5531;42.570;23.676;2023-07-02T09:29:17;6.70;;;4.97;;
10957;SDS011;5531;42.570;23.676;2023-07-02T09:31:47;5.78;;;5.10;;
10957;SDS011;5531;42.570;23.676;2023-07-02T09:34:19;5.70;;;4.85;;
10957;SDS011;5531;42.570;23.676;2023-07-02T09:36:54;6.68;;;4.80;;
10957;SDS011;5531;42.570;23.676;2023-07-02T09:39:27;7.68;;;5.20;;
10957;SDS011;5531;42.570;23.676;2023-07-02T09:41:57;4.90;;;4.40;;
10957;SDS011;5531;42.570;23.676;2023-07-02T09:44:27;5.60;;;4.72;;
10957;SDS011;5531;42.570;23.676;2023-07-02T09:46:58;5.10;;;4.60;;
10957;SDS011;5531;42.570;23.676;2023-07-02T09:49:34;5.78;;;4.78;;
10957;SDS011;5531;42.570;23.676;2023-07-02T09:52:04;5.28;;;4.70;;
10957;SDS011;5531;42.570;23.676;2023-07-02T09:54:35;5.47;;;4.75;;
10957;SDS011;5531;42.570;23.676;2023-07-02T09:57:04;5.63;;;4.55;;
10957;SDS011;5531;42.570;23.676;2023-07-02T09:59:35;5.47;;;4.72;;
10957;SDS011;5531;42.570;23.676;2023-07-02T10:02:04;6.95;;;4.85;;
10957;SDS011;5531;42.570;23.676;2023-07-02T10:04:43;5.35;;;4.78;;
10957;SDS011;5531;42.570;23.676;2023-07-02T10:07:25;6.10;;;5.00;;
10957;SDS011;5531;42.570;23.676;2023-07-02T10:09:55;5.72;;;5.05;;
10957;SDS011;5531;42.570;23.676;2023-07-02T10:12:24;6.15;;;5.25;;
10957;SDS011;5531;42.570;23.676;2023-07-02T10:14:55;6.65;;;5.10;;
10957;SDS011;5531;42.570;23.676;2023-07-02T10:17:26;6.55;;;4.72;;
10957;SDS011;5531;42.570;23.676;2023-07-02T10:19:59;5.30;;;4.63;;
10957;SDS011;5531;42.570;23.676;2023-07-02T10:22:41;6.63;;;5.38;;
10957;SDS011;5531;42.570;23.676;2023-07-02T10:25:11;5.65;;;4.88;;
10957;SDS011;5531;42.570;23.676;2023-07-02T10:27:40;5.07;;;4.57;;
10957;SDS011;5531;42.570;23.676;2023-07-02T10:30:10;7.35;;;4.82;;
10957;SDS011;5531;42.570;23.676;2023-07-02T10:32:40;5.53;;;5.03;;
10957;SDS011;5531;42.570;23.676;2023-07-02T10:35:18;5.88;;;5.05;;
10957;SDS011;5531;42.570;23.676;2023-07-02T10:37:47;7.72;;;5.50;;
10957;SDS011;5531;42.570;23.676;2023-07-02T10:40:16;5.70;;;5.10;;
10957;SDS011;5531;42.570;23.676;2023-07-02T10:42:45;5.57;;;4.82;;
10957;SDS011;5531;42.570;23.676;2023-07-02T10:45:15;6.07;;;4.72;;
10957;SDS011;5531;42.570;23.676;2023-07-02T10:47:45;6.25;;;4.95;;
10957;SDS011;5531;42.570;23.676;2023-07-02T10:50:18;7.45;;;5.22;;
10957;SDS011;5531;42.570;23.676;2023-07-02T10:52:49;5.47;;;4.97;;
10957;SDS011;5531;42.570;23.676;2023-07-02T10:55:19;5.57;;;5.00;;
10957;SDS011;5531;42.570;23.676;2023-07-02T10:57:49;6.63;;;5.20;;
10957;SDS011;5531;42.570;23.676;2023-07-02T11:00:19;5.75;;;5.13;;
10957;SDS011;5531;42.570;23.676;2023-07-02T11:02:48;5.93;;;5.20;;
10957;SDS011;5531;42.570;23.676;2023-07-02T11:05:20;5.95;;;4.55;;
10957;SDS011;5531;42.570;23.676;2023-07-02T11:07:49;5.78;;;5.05;;
10957;SDS011;5531;42.570;23.676;2023-07-02T11:10:22;5.30;;;4.78;;
10957;SDS011;5531;42.570;23.676;2023-07-02T11:12:53;5.60;;;5.00;;
10957;SDS011;5531;42.570;23.676;2023-07-02T11:15:22;6.18;;;5.28;;
10957;SDS011;5531;42.570;23.676;2023-07-02T11:17:51;7.90;;;5.07;;
10957;SDS011;5531;42.570;23.676;2023-07-02T11:20:23;4.85;;;4.35;;
10957;SDS011;5531;42.570;23.676;2023-07-02T11:23:02;6.53;;;5.30;;
10957;SDS011;5531;42.570;23.676;2023-07-02T11:25:31;5.65;;;5.10;;
10957;SDS011;5531;42.570;23.676;2023-07-02T11:28:03;7.13;;;6.20;;
10957;SDS011;5531;42.570;23.676;2023-07-02T11:30:33;17.35;;;11.65;;
10957;SDS011;5531;42.570;23.676;2023-07-02T11:33:13;5.90;;;5.07;;
10957;SDS011;5531;42.570;23.676;2023-07-02T11:35:44;6.20;;;5.07;;
10957;SDS011;5531;42.570;23.676;2023-07-02T11:38:13;5.55;;;5.05;;
10957;SDS011;5531;42.570;23.676;2023-07-02T11:40:43;7.00;;;5.45;;
10957;SDS011;5531;42.570;23.676;2023-07-02T11:43:13;5.35;;;4.85;;
10957;SDS011;5531;42.570;23.676;2023-07-02T11:45:43;5.60;;;5.10;;
10957;SDS011;5531;42.570;23.676;2023-07-02T11:48:12;5.85;;;4.97;;
10957;SDS011;5531;42.570;23.676;2023-07-02T11:50:41;6.03;;;4.85;;
10957;SDS011;5531;42.570;23.676;2023-07-02T11:53:13;5.88;;;5.13;;
10957;SDS011;5531;42.570;23.676;2023-07-02T11:55:42;6.63;;;5.30;;
10957;SDS011;5531;42.570;23.676;2023-07-02T11:58:11;5.72;;;5.00;;
10957;SDS011;5531;42.570;23.676;2023-07-02T12:00:40;6.53;;;5.43;;
10957;SDS011;5531;42.570;23.676;2023-07-02T12:03:09;5.90;;;5.05;;
10957;SDS011;5531;42.570;23.676;2023-07-02T12:05:39;6.28;;;5.20;;
10957;SDS011;5531;42.570;23.676;2023-07-02T12:08:08;5.47;;;4.97;;
10957;SDS011;5531;42.570;23.676;2023-07-02T12:10:40;5.63;;;5.03;;
10957;SDS011;5531;42.570;23.676;2023-07-02T12:13:10;5.70;;;5.10;;
10957;SDS011;5531;42.570;23.676;2023-07-02T12:15:40;6.38;;;5.22;;
10957;SDS011;5531;42.570;23.676;2023-07-02T12:18:09;6.53;;;4.97;;
10957;SDS011;5531;42.570;23.676;2023-07-02T12:20:39;5.68;;;5.15;;
10957;SDS011;5531;42.570;23.676;2023-07-02T12:23:08;6.82;;;5.07;;
10957;SDS011;5531;42.570;23.676;2023-07-02T12:25:40;6.97;;;5.22;;
10957;SDS011;5531;42.570;23.676;2023-07-02T12:28:09;5.82;;;5.20;;
10957;SDS011;5531;42.570;23.676;2023-07-02T12:30:38;6.38;;;4.90;;
10957;SDS011;5531;42.570;23.676;2023-07-02T12:33:07;7.30;;;5.10;;
10957;SDS011;5531;42.570;23.676;2023-07-02T12:35:36;5.18;;;4.68;;
10957;SDS011;5531;42.570;23.676;2023-07-02T12:38:05;5.65;;;5.05;;
10957;SDS011;5531;42.570;23.676;2023-07-02T12:40:35;5.97;;;4.93;;
10957;SDS011;5531;42.570;23.676;2023-07-02T12:43:06;5.63;;;5.05;;
10957;SDS011;5531;42.570;23.676;2023-07-02T12:45:35;5.82;;;4.60;;
10957;SDS011;5531;42.570;23.676;2023-07-02T12:48:04;5.03;;;4.53;;
10957;SDS011;5531;42.570;23.676;2023-07-02T12:50:36;7.10;;;5.10;;
10957;SDS011;5531;42.570;23.676;2023-07-02T12:53:05;6.03;;;4.72;;
10957;SDS011;5531;42.570;23.676;2023-07-02T12:55:35;5.43;;;4.93;;
10957;SDS011;5531;42.570;23.676;2023-07-02T12:58:06;7.10;;;5.32;;
10957;SDS011;5531;42.570;23.676;2023-07-02T13:00:35;5.72;;;5.13;;
10957;SDS011;5531;42.570;23.676;2023-07-02T13:03:04;6.10;;;5.05;;
10957;SDS011;5531;42.570;23.676;2023-07-02T13:05:38;5.65;;;5.15;;
10957;SDS011;5531;42.570;23.676;2023-07-02T13:08:09;5.93;;;5.10;;
10957;SDS011;5531;42.570;23.676;2023-07-02T13:10:38;5.82;;;4.80;;
10957;SDS011;5531;42.570;23.676;2023-07-02T13:13:10;8.25;;;5.30;;
10957;SDS011;5531;42.570;23.676;2023-07-02T13:15:39;5.65;;;5.15;;
10957;SDS011;5531;42.570;23.676;2023-07-02T13:18:08;7.32;;;5.50;;
10957;SDS011;5531;42.570;23.676;2023-07-02T13:20:37;6.45;;;5.10;;
10957;SDS011;5531;42.570;23.676;2023-07-02T13:23:06;6.60;;;5.53;;
10957;SDS011;5531;42.570;23.676;2023-07-02T13:25:35;8.45;;;5.43;;
10957;SDS011;5531;42.570;23.676;2023-07-02T13:28:04;7.85;;;5.50;;
10957;SDS011;5531;42.570;23.676;2023-07-02T13:30:36;7.60;;;5.80;;
10957;SDS011;5531;42.570;23.676;2023-07-02T13:33:05;7.65;;;5.57;;
10957;SDS011;5531;42.570;23.676;2023-07-02T13:35:34;6.57;;;5.53;;
10957;SDS011;5531;42.570;23.676;2023-07-02T13:38:03;6.82;;;4.85;;
10957;SDS011;5531;42.570;23.676;2023-07-02T13:40:32;5.97;;;5.38;;
10957;SDS011;5531;42.570;23.676;2023-07-02T13:43:01;5.90;;;5.30;;
10957;SDS011;5531;42.570;23.676;2023-07-02T13:45:31;6.47;;;5.25;;
10957;SDS011;5531;42.570;23.676;2023-07-02T13:48:02;7.38;;;5.20;;
10957;SDS011;5531;42.570;23.676;2023-07-02T13:50:32;5.80;;;5.28;;
10957;SDS011;5531;42.570;23.676;2023-07-02T13:53:01;7.20;;;5.15;;
10957;SDS011;5531;42.570;23.676;2023-07-02T13:55:30;7.85;;;5.20;;
10957;SDS011;5531;42.570;23.676;2023-07-02T13:58:00;6.80;;;5.25;;
10957;SDS011;5531;42.570;23.676;2023-07-02T14:00:32;7.10;;;5.13;;
10957;SDS011;5531;42.570;23.676;2023-07-02T14:03:01;5.93;;;5.32;;
10957;SDS011;5531;42.570;23.676;2023-07-02T14:05:30;11.35;;;5.57;;
10957;SDS011;5531;42.570;23.676;2023-07-02T14:07:59;7.00;;;5.18;;
10957;SDS011;5531;42.570;23.676;2023-07-02T14:10:28;7.93;;;5.40;;
10957;SDS011;5531;42.570;23.676;2023-07-02T14:12:57;7.00;;;5.40;;
10957;SDS011;5531;42.570;23.676;2023-07-02T14:15:26;8.85;;;6.10;;
10957;SDS011;5531;42.570;23.676;2023-07-02T14:17:58;7.40;;;5.22;;
10957;SDS011;5531;42.570;23.676;2023-07-02T14:20:27;6.78;;;4.75;;
10957;SDS011;5531;42.570;23.676;2023-07-02T14:22:57;6.10;;;4.95;;
10957;SDS011;5531;42.570;23.676;2023-07-02T14:25:26;7.50;;;5.78;;
10957;SDS011;5531;42.570;23.676;2023-07-02T14:27:55;6.78;;;5.47;;
10957;SDS011;5531;42.570;23.676;2023-07-02T14:30:24;6.82;;;5.70;;
10957;SDS011;5531;42.570;23.676;2023-07-02T14:32:53;7.20;;;5.15;;
10957;SDS011;5531;42.570;23.676;2023-07-02T14:35:25;5.65;;;5.05;;
10957;SDS011;5531;42.570;23.676;2023-07-02T14:37:56;5.35;;;4.85;;
10957;SDS011;5531;42.570;23.676;2023-07-02T14:40:25;6.30;;;5.65;;
10957;SDS011;5531;42.570;23.676;2023-07-02T14:42:54;6.10;;;5.30;;
10957;SDS011;5531;42.570;23.676;2023-07-02T14:45:24;6.75;;;5.25;;
10957;SDS011;5531;42.570;23.676;2023-07-02T14:47:53;7.50;;;5.60;;
10957;SDS011;5531;42.570;23.676;2023-07-02T14:50:27;8.63;;;5.40;;
10957;SDS011;5531;42.570;23.676;2023-07-02T14:52:57;6.75;;;5.10;;
10957;SDS011;5531;42.570;23.676;2023-07-02T14:55:26;6.32;;;5.68;;
10957;SDS011;5531;42.570;23.676;2023-07-02T14:57:56;7.35;;;5.47;;
10957;SDS011;5531;42.570;23.676;2023-07-02T15:00:25;9.00;;;5.00;;
10957;SDS011;5531;42.570;23.676;2023-07-02T15:02:54;5.82;;;5.22;;
10957;SDS011;5531;42.570;23.676;2023-07-02T15:05:23;6.70;;;5.63;;